createdAt,value
2022-08-10T00:00:03.022Z,2.20
2022-08-10T00:02:52.186Z,2.73
2022-08-10T00:05:43.223Z,2.40
2022-08-10T00:08:43.464Z,2.33
2022-08-10T00:11:32.324Z,2.50
2022-08-10T00:14:21.403Z,2.90
2022-08-10T00:17:10.299Z,2.30
2022-08-10T00:20:03.436Z,2.50
2022-08-10T00:22:57.902Z,2.83
2022-08-10T00:25:48.523Z,2.90
2022-08-10T00:28:38.905Z,2.93
2022-08-10T00:31:28.020Z,3.00
2022-08-10T00:34:16.878Z,3.10
2022-08-10T00:37:05.913Z,2.63
2022-08-10T00:39:54.999Z,2.97
2022-08-10T00:42:45.303Z,2.43
2022-08-10T00:45:34.213Z,3.17
2022-08-10T00:48:23.122Z,2.90
2022-08-10T00:51:17.189Z,2.87
2022-08-10T00:54:06.631Z,2.73
2022-08-10T00:57:17.897Z,2.70
2022-08-10T01:00:08.551Z,3.00
2022-08-10T01:02:57.600Z,3.50
2022-08-10T01:05:51.458Z,3.33
2022-08-10T01:08:46.380Z,3.27
2022-08-10T01:12:39.888Z,2.80
2022-08-10T01:14:49.259Z,3.57
2022-08-10T01:17:55.550Z,2.50
2022-08-10T01:20:49.323Z,3.83
2022-08-10T01:23:52.788Z,2.93
2022-08-10T01:26:44.716Z,2.83
2022-08-10T01:29:43.692Z,2.80
2022-08-10T01:32:41.271Z,3.63
2022-08-10T01:35:33.065Z,4.23
2022-08-10T01:38:23.947Z,3.07
2022-08-10T01:41:14.847Z,3.60
2022-08-10T01:44:05.744Z,4.10
2022-08-10T01:47:22.271Z,3.40
2022-08-10T01:50:14.117Z,3.30
2022-08-10T01:53:05.263Z,3.63
2022-08-10T01:55:55.604Z,4.13
2022-08-10T01:58:45.486Z,4.70
2022-08-10T02:01:36.462Z,4.33
2022-08-10T02:04:27.604Z,4.40
2022-08-10T02:07:18.298Z,3.40
2022-08-10T02:10:10.151Z,4.37
2022-08-10T02:12:59.474Z,4.10
2022-08-10T02:16:02.035Z,3.93
2022-08-10T02:18:52.352Z,3.90
2022-08-10T02:22:38.326Z,4.23
2022-08-10T02:24:53.406Z,3.30
2022-08-10T02:27:42.421Z,2.83
2022-08-10T02:30:32.125Z,3.80
2022-08-10T02:33:22.106Z,4.30
2022-08-10T02:36:13.434Z,3.73
2022-08-10T02:39:05.078Z,3.80
2022-08-10T02:45:01.727Z,3.60
2022-08-10T02:45:27.197Z,4.00
2022-08-10T02:48:20.200Z,4.17
2022-08-10T02:51:11.215Z,4.07
2022-08-10T02:54:03.090Z,4.40
2022-08-10T02:56:55.689Z,4.43
2022-08-10T02:59:46.114Z,3.80
2022-08-10T03:02:37.186Z,4.57
2022-08-10T03:05:26.248Z,3.80
2022-08-10T03:08:16.197Z,4.00
2022-08-10T03:11:05.922Z,4.73
2022-08-10T03:13:59.574Z,4.60
2022-08-10T03:16:49.408Z,4.63
2022-08-10T03:20:33.641Z,4.13
2022-08-10T03:22:48.359Z,4.27
2022-08-10T03:25:37.590Z,4.77
2022-08-10T03:28:27.863Z,3.80
2022-08-10T03:31:18.186Z,4.87
2022-08-10T03:34:32.861Z,4.20
2022-08-10T03:37:16.286Z,4.40
2022-08-10T03:40:05.849Z,4.63
2022-08-10T03:42:55.838Z,5.50
2022-08-10T03:45:55.071Z,4.73
2022-08-10T03:48:49.061Z,5.10
2022-08-10T03:51:39.444Z,4.33
2022-08-10T03:54:28.671Z,4.47
2022-08-10T03:57:17.547Z,4.43
2022-08-10T04:00:08.545Z,4.53
2022-08-10T04:03:01.212Z,4.80
2022-08-10T04:05:51.683Z,4.47
2022-08-10T04:08:42.074Z,4.70
2022-08-10T04:11:31.012Z,4.97
2022-08-10T04:14:38.265Z,5.20
2022-08-10T04:17:56.991Z,4.37
2022-08-10T04:20:39.804Z,5.27
2022-08-10T04:23:32.236Z,4.60
2022-08-10T04:26:21.703Z,4.63
2022-08-10T04:29:10.954Z,5.10
2022-08-10T04:32:00.098Z,4.50
2022-08-10T04:34:49.343Z,4.50
2022-08-10T04:37:46.731Z,4.50
2022-08-10T04:40:37.742Z,4.43
2022-08-10T04:43:26.784Z,4.20
2022-08-10T04:46:55.725Z,4.00
2022-08-10T04:49:54.605Z,5.00
2022-08-10T04:52:34.052Z,4.33
2022-08-10T04:55:23.113Z,4.97
2022-08-10T04:58:13.331Z,5.17
2022-08-10T05:01:02.385Z,3.77
2022-08-10T05:04:37.516Z,4.13
2022-08-10T05:07:00.730Z,4.17
2022-08-10T05:10:01.331Z,4.10
2022-08-10T05:12:54.228Z,3.00
2022-08-10T05:15:45.425Z,2.73
2022-08-10T05:18:34.317Z,3.53
2022-08-10T05:21:52.037Z,3.47
2022-08-10T05:24:32.025Z,4.00
2022-08-10T05:27:20.885Z,2.90
2022-08-10T05:30:10.829Z,3.37
2022-08-10T05:33:04.973Z,3.20
2022-08-10T05:35:58.371Z,3.80
2022-08-10T05:38:47.544Z,3.27
2022-08-10T05:41:40.282Z,3.33
2022-08-10T05:44:31.761Z,3.47
2022-08-10T05:47:20.659Z,3.33
2022-08-10T05:50:11.842Z,2.73
2022-08-10T05:53:05.805Z,3.10
2022-08-10T05:56:10.267Z,3.00
2022-08-10T05:58:59.134Z,3.00
2022-08-10T06:02:31.545Z,2.67
2022-08-10T06:05:00.761Z,2.83
2022-08-10T06:07:53.180Z,2.97
2022-08-10T06:12:24.685Z,2.93
2022-08-10T06:14:15.832Z,2.97
2022-08-10T06:17:06.185Z,4.03
2022-08-10T06:19:55.227Z,2.93
2022-08-10T06:22:44.105Z,2.90
2022-08-10T06:29:02.313Z,2.50
2022-08-10T06:31:53.944Z,3.60
2022-08-10T06:34:45.108Z,2.77
2022-08-10T06:37:34.045Z,3.10
2022-08-10T06:40:23.198Z,3.13
2022-08-10T06:43:15.431Z,3.00
2022-08-10T06:46:08.792Z,2.87
2022-08-10T06:48:59.667Z,3.07
2022-08-10T06:51:57.340Z,2.80
2022-08-10T06:54:46.685Z,2.60
2022-08-10T06:57:36.348Z,2.80
2022-08-10T07:00:33.848Z,2.30
2022-08-10T07:03:25.882Z,3.23
2022-08-10T07:06:15.761Z,2.70
2022-08-10T07:09:05.006Z,2.27
2022-08-10T07:11:55.383Z,2.40
2022-08-10T07:14:46.571Z,2.10
2022-08-10T07:17:39.668Z,2.30
2022-08-10T07:20:29.119Z,2.10
2022-08-10T07:23:58.978Z,2.00
2022-08-10T07:26:29.027Z,2.10
2022-08-10T07:29:52.974Z,2.30
2022-08-10T07:32:28.231Z,2.60
2022-08-10T07:35:19.240Z,3.20
2022-08-10T07:38:09.183Z,1.90
2022-08-10T07:41:00.301Z,2.47
2022-08-10T07:43:49.801Z,2.45
2022-08-10T07:46:40.196Z,2.38
2022-08-10T07:49:32.573Z,2.20
2022-08-10T07:52:23.749Z,1.98
2022-08-10T07:55:14.780Z,2.30
2022-08-10T07:58:04.818Z,2.40
2022-08-10T08:00:54.806Z,2.75
2022-08-10T08:03:43.966Z,2.70
2022-08-10T08:06:33.945Z,2.17
2022-08-10T08:09:25.387Z,2.35
2022-08-10T08:12:14.827Z,2.10
2022-08-10T08:16:14.458Z,2.40
2022-08-10T08:18:14.822Z,2.90
2022-08-10T08:21:04.078Z,2.50
2022-08-10T08:24:30.425Z,2.33
2022-08-10T08:27:19.517Z,2.55
2022-08-10T08:30:09.052Z,2.38
2022-08-10T08:32:58.200Z,2.10
2022-08-10T08:35:47.215Z,2.13
2022-08-10T08:38:37.530Z,2.35
2022-08-10T08:41:39.676Z,2.50
2022-08-10T08:44:36.584Z,2.78
2022-08-10T08:48:03.679Z,2.30
2022-08-10T08:50:49.756Z,2.50
2022-08-10T08:54:02.526Z,3.00
2022-08-10T08:57:00.220Z,2.08
2022-08-10T08:59:56.576Z,2.22
2022-08-10T09:02:54.489Z,2.50
2022-08-10T09:05:58.930Z,2.47
2022-08-10T09:09:04.562Z,2.60
2022-08-10T09:11:59.928Z,2.63
2022-08-10T09:14:51.365Z,2.05
2022-08-10T09:17:48.440Z,2.38
2022-08-10T09:20:41.149Z,2.95
2022-08-10T09:24:05.556Z,2.72
2022-08-10T09:26:49.600Z,2.30
2022-08-10T09:29:45.797Z,2.83
2022-08-10T09:36:14.870Z,2.17
2022-08-10T09:36:21.069Z,2.47
2022-08-10T09:40:12.751Z,2.28
2022-08-10T09:42:33.404Z,2.30
2022-08-10T09:45:37.330Z,2.35
2022-08-10T09:48:33.481Z,2.67
2022-08-10T09:51:45.541Z,2.53
2022-08-10T09:54:46.720Z,2.35
2022-08-10T09:57:46.550Z,2.45
2022-08-10T10:00:42.908Z,2.85
2022-08-10T10:03:34.868Z,2.22
2022-08-10T10:06:25.636Z,2.38
2022-08-10T10:09:26.963Z,2.30
2022-08-10T10:12:25.430Z,2.33
2022-08-10T10:15:27.580Z,2.15
2022-08-10T10:18:32.659Z,2.00
2022-08-10T10:21:54.693Z,2.58
2022-08-10T10:24:41.466Z,2.40
2022-08-10T10:27:37.752Z,2.50
2022-08-10T10:30:32.046Z,2.10
2022-08-10T10:33:32.534Z,2.35
2022-08-10T10:36:23.135Z,2.05
2022-08-10T10:39:14.785Z,2.40
2022-08-10T10:42:42.115Z,2.15
2022-08-10T10:45:42.161Z,2.47
2022-08-10T10:48:43.901Z,2.35
2022-08-10T10:51:39.109Z,2.50
2022-08-10T10:54:37.920Z,2.60
2022-08-10T10:57:59.854Z,2.17
2022-08-10T11:00:46.471Z,2.33
2022-08-10T11:03:57.167Z,2.42
2022-08-10T11:06:58.137Z,2.30
2022-08-10T11:10:04.785Z,2.20
2022-08-10T11:14:24.755Z,2.38
2022-08-10T11:16:30.924Z,2.20
2022-08-10T11:19:25.038Z,2.58
2022-08-10T11:22:18.993Z,2.00
2022-08-10T11:25:12.742Z,1.90
2022-08-10T11:28:09.513Z,2.47
2022-08-10T11:31:05.954Z,2.15
2022-08-10T11:34:48.721Z,2.35
2022-08-10T11:37:20.445Z,2.10
2022-08-10T11:40:16.670Z,1.90
2022-08-10T11:43:14.348Z,2.10
2022-08-10T11:46:19.397Z,2.00
2022-08-10T11:49:18.610Z,2.22
2022-08-10T11:52:14.148Z,1.83
2022-08-10T11:55:12.431Z,2.00
2022-08-10T11:58:25.319Z,2.00
2022-08-10T12:01:18.330Z,2.28
2022-08-10T12:04:11.971Z,2.10
2022-08-10T12:07:05.110Z,2.40
2022-08-10T12:10:15.215Z,2.05
2022-08-10T12:13:09.345Z,2.67
2022-08-10T12:16:06.984Z,1.90
2022-08-10T12:19:05.025Z,1.85
2022-08-10T12:22:05.886Z,2.00
2022-08-10T12:25:00.067Z,2.03
2022-08-10T12:27:53.961Z,2.33
2022-08-10T12:30:51.547Z,1.80
2022-08-10T12:34:02.549Z,2.60
2022-08-10T12:37:05.513Z,2.33
2022-08-10T12:40:33.495Z,2.13
2022-08-10T12:44:06.516Z,1.58
2022-08-10T12:46:37.348Z,2.05
2022-08-10T12:49:32.268Z,1.92
2022-08-10T12:52:28.988Z,1.50
2022-08-10T12:55:20.060Z,1.83
2022-08-10T12:59:00.117Z,1.80
2022-08-10T13:01:25.455Z,2.08
2022-08-10T13:04:36.489Z,1.65
2022-08-10T13:08:03.865Z,1.80
2022-08-10T13:10:44.372Z,1.60
2022-08-10T13:13:35.736Z,2.05
2022-08-10T13:16:25.407Z,1.77
2022-08-10T13:19:21.559Z,1.80
2022-08-10T13:22:13.531Z,1.70
2022-08-10T13:25:06.526Z,1.77
2022-08-10T13:28:02.767Z,1.88
2022-08-10T13:31:16.794Z,2.45
2022-08-10T13:34:42.649Z,2.08
2022-08-10T13:37:21.293Z,2.10
2022-08-10T13:40:13.810Z,1.73
2022-08-10T13:43:06.911Z,2.10
2022-08-10T13:45:56.743Z,1.85
2022-08-10T13:48:47.208Z,1.98
2022-08-10T13:51:54.481Z,3.00
2022-08-10T13:54:48.763Z,1.88
2022-08-10T13:57:40.922Z,2.33
2022-08-10T14:00:38.761Z,2.13
2022-08-10T14:03:29.441Z,2.13
2022-08-10T14:06:19.938Z,2.35
2022-08-10T14:09:11.153Z,2.25
2022-08-10T14:12:00.466Z,1.80
2022-08-10T14:14:53.182Z,2.08
2022-08-10T14:17:45.096Z,2.05
2022-08-10T14:20:35.803Z,1.80
2022-08-10T14:23:24.671Z,1.65
2022-08-10T14:26:16.443Z,2.25
2022-08-10T14:29:10.243Z,1.92
2022-08-10T14:32:11.958Z,2.30
2022-08-10T14:36:22.520Z,1.70
2022-08-10T14:38:23.526Z,1.60
2022-08-10T14:42:01.592Z,1.83
2022-08-10T14:44:31.044Z,1.90
2022-08-10T14:47:59.358Z,1.80
2022-08-10T14:50:35.165Z,2.00
2022-08-10T14:53:26.652Z,2.10
2022-08-10T14:56:17.465Z,1.77
2022-08-10T14:59:09.405Z,1.65
2022-08-10T15:02:38.322Z,1.83
2022-08-10T15:05:15.733Z,1.80
2022-08-10T15:08:05.398Z,1.88
2022-08-10T15:10:58.139Z,1.75
2022-08-10T15:14:34.158Z,1.92
2022-08-10T15:16:59.538Z,1.60
2022-08-10T15:20:04.732Z,1.77
2022-08-10T15:23:05.671Z,2.10
2022-08-10T15:25:57.835Z,1.65
2022-08-10T15:29:22.911Z,1.77
2022-08-10T15:32:15.503Z,1.90
2022-08-10T15:35:22.780Z,1.67
2022-08-10T15:38:18.210Z,1.70
2022-08-10T15:41:11.147Z,2.15
2022-08-10T15:44:00.829Z,1.75
2022-08-10T15:46:51.044Z,2.55
2022-08-10T15:49:45.985Z,1.50
2022-08-10T15:53:00.844Z,1.70
2022-08-10T15:55:52.294Z,1.70
2022-08-10T15:58:47.879Z,1.70
2022-08-10T16:02:14.098Z,1.52
2022-08-10T16:04:50.109Z,1.50
2022-08-10T16:07:49.120Z,1.25
2022-08-10T16:10:41.807Z,1.90
2022-08-10T16:13:50.720Z,1.63
2022-08-10T16:16:44.016Z,1.48
2022-08-10T16:19:33.500Z,1.75
2022-08-10T16:22:36.167Z,1.50
2022-08-10T16:25:51.656Z,1.88
2022-08-10T16:28:39.575Z,1.90
2022-08-10T16:31:29.891Z,1.70
2022-08-10T16:34:19.487Z,1.58
2022-08-10T16:37:09.638Z,1.85
2022-08-10T16:40:01.300Z,1.48
2022-08-10T16:42:55.353Z,1.10
2022-08-10T16:45:48.695Z,1.77
2022-08-10T16:48:50.290Z,1.45
2022-08-10T16:51:47.276Z,1.70
2022-08-10T16:54:36.986Z,1.45
2022-08-10T16:57:31.657Z,1.77
2022-08-10T17:00:22.484Z,1.40
2022-08-10T17:03:22.767Z,1.50
2022-08-10T17:06:24.848Z,1.77
2022-08-10T17:09:16.564Z,1.63
2022-08-10T17:12:10.309Z,1.63
2022-08-10T17:15:09.584Z,1.63
2022-08-10T17:18:00.148Z,1.58
2022-08-10T17:20:52.584Z,1.52
2022-08-10T17:23:42.461Z,1.67
2022-08-10T17:26:35.546Z,2.03
2022-08-10T17:29:58.585Z,1.83
2022-08-10T17:32:44.411Z,2.10
2022-08-10T17:35:36.017Z,1.55
2022-08-10T17:38:27.991Z,1.70
2022-08-10T17:41:18.059Z,1.85
2022-08-10T17:44:07.679Z,1.70
2022-08-10T17:46:56.959Z,1.50
2022-08-10T17:49:48.063Z,1.77
2022-08-10T17:52:37.397Z,1.63
2022-08-10T17:55:32.592Z,1.67
2022-08-10T17:58:22.377Z,1.80
2022-08-10T18:01:41.287Z,1.77
2022-08-10T18:04:20.883Z,1.30
2022-08-10T18:07:10.385Z,2.23
2022-08-10T18:10:00.025Z,1.40
2022-08-10T18:12:51.147Z,1.90
2022-08-10T18:15:44.139Z,2.13
2022-08-10T18:18:33.148Z,1.80
2022-08-10T18:21:24.365Z,2.00
2022-08-10T18:24:17.574Z,1.70
2022-08-10T18:27:07.753Z,1.67
2022-08-10T18:29:59.860Z,2.20
2022-08-10T18:32:50.716Z,2.00
2022-08-10T18:35:40.322Z,1.60
2022-08-10T18:38:29.776Z,2.03
2022-08-10T18:41:21.115Z,1.70
2022-08-10T18:44:12.732Z,1.70
2022-08-10T18:47:03.644Z,1.87
2022-08-10T18:49:55.674Z,1.93
2022-08-10T18:52:45.303Z,1.70
2022-08-10T18:55:46.396Z,1.50
2022-08-10T18:58:51.265Z,2.13
2022-08-10T19:01:50.271Z,1.70
2022-08-10T19:04:49.399Z,1.80
2022-08-10T19:07:54.154Z,1.80
2022-08-10T19:10:48.611Z,1.97
2022-08-10T19:13:50.652Z,1.83
2022-08-10T19:16:42.643Z,2.13
2022-08-10T19:19:36.502Z,2.13
2022-08-10T19:22:28.377Z,1.70
2022-08-10T19:26:40.938Z,1.50
2022-08-10T19:28:32.669Z,1.47
2022-08-10T19:31:44.037Z,1.90
2022-08-10T19:34:41.950Z,2.57
2022-08-10T19:37:36.594Z,1.67
2022-08-10T19:40:43.995Z,1.80
2022-08-10T19:44:00.312Z,2.17
2022-08-10T19:46:50.476Z,1.60
2022-08-10T19:49:44.193Z,2.10
2022-08-10T19:52:40.814Z,1.60
2022-08-10T19:55:34.937Z,1.93
2022-08-10T19:58:25.854Z,1.47
2022-08-10T20:01:15.374Z,1.93
2022-08-10T20:04:06.826Z,1.93
2022-08-10T20:07:00.016Z,1.73
2022-08-10T20:09:54.234Z,1.90
2022-08-10T20:12:57.714Z,1.90
2022-08-10T20:15:57.447Z,2.17
2022-08-10T20:18:49.493Z,1.80
2022-08-10T20:21:41.456Z,1.57
2022-08-10T20:24:31.554Z,1.80
2022-08-10T20:27:58.861Z,1.60
2022-08-10T20:30:34.233Z,1.40
2022-08-10T20:33:28.701Z,1.80
2022-08-10T20:36:23.155Z,1.20
2022-08-10T20:39:15.118Z,1.93
2022-08-10T20:42:05.525Z,2.00
2022-08-10T20:45:00.698Z,2.00
2022-08-10T20:47:56.921Z,1.30
2022-08-10T20:50:47.750Z,1.70
2022-08-10T20:53:42.516Z,1.63
2022-08-10T20:56:36.535Z,1.40
2022-08-10T20:59:37.113Z,1.80
2022-08-10T21:03:07.027Z,1.57
2022-08-10T21:06:00.736Z,1.70
2022-08-10T21:08:52.820Z,2.20
2022-08-10T21:11:51.209Z,1.60
2022-08-10T21:14:47.441Z,1.50
2022-08-10T21:17:44.749Z,1.63
2022-08-10T21:23:57.884Z,1.53
2022-08-10T21:25:41.918Z,1.67
2022-08-10T21:26:51.685Z,2.20
2022-08-10T21:29:55.809Z,1.70
2022-08-10T21:32:53.780Z,1.53
2022-08-10T21:35:44.488Z,2.03
2022-08-10T21:38:44.475Z,1.33
2022-08-10T21:41:58.949Z,1.90
2022-08-10T21:45:09.861Z,2.00
2022-08-10T21:48:30.090Z,1.80
2022-08-10T21:52:01.193Z,1.73
2022-08-10T21:55:09.463Z,1.67
2022-08-10T21:58:20.895Z,1.73
2022-08-10T22:01:39.114Z,1.30
2022-08-10T22:04:46.377Z,1.47
2022-08-10T22:07:54.189Z,1.50
2022-08-10T22:11:04.571Z,2.23
2022-08-10T22:14:13.805Z,1.30
2022-08-10T22:17:59.814Z,1.77
2022-08-10T22:20:50.359Z,1.40
2022-08-10T22:24:16.896Z,1.40
2022-08-10T22:27:46.366Z,1.80
2022-08-10T22:31:27.154Z,1.80
2022-08-10T22:34:48.499Z,2.03
2022-08-10T22:37:59.149Z,1.90
2022-08-10T22:41:19.982Z,1.70
2022-08-10T22:44:30.138Z,1.70
2022-08-10T22:47:39.714Z,1.30
2022-08-10T22:50:28.420Z,1.57
2022-08-10T22:53:19.827Z,1.33
2022-08-10T22:56:28.495Z,1.57
2022-08-10T22:59:26.978Z,1.67
2022-08-10T23:02:19.072Z,2.00
2022-08-10T23:05:12.172Z,2.07
2022-08-10T23:08:03.666Z,1.70
2022-08-10T23:10:53.439Z,1.40
2022-08-10T23:13:43.771Z,2.00
2022-08-10T23:16:54.963Z,2.07
2022-08-10T23:19:46.262Z,1.53
2022-08-10T23:22:38.997Z,1.80
2022-08-10T23:25:30.318Z,1.47
2022-08-10T23:28:38.685Z,1.90
2022-08-10T23:32:01.427Z,1.63
2022-08-10T23:34:38.863Z,1.40
2022-08-10T23:37:30.251Z,2.00
2022-08-10T23:40:21.568Z,1.40
2022-08-10T23:43:16.469Z,1.80
2022-08-10T23:46:07.263Z,1.53
2022-08-10T23:48:56.791Z,1.73
2022-08-10T23:51:56.323Z,1.70
2022-08-10T23:54:47.891Z,1.53
2022-08-10T23:57:39.792Z,1.33
